sensor_id;sensor_type;location;lat;lon;timestamp;pressure;altitude;pressure_sealevel;temperature;humidity
7480;BME280;3781;42.272;22.658;2022-07-29T00:01:17;94732.59;;;16.87;100.00
7480;BME280;3781;42.272;22.658;2022-07-29T00:03:43;94747.31;;;16.88;100.00
7480;BME280;3781;42.272;22.658;2022-07-29T00:06:10;94758.50;;;16.90;100.00
7480;BME280;3781;42.272;22.658;2022-07-29T00:08:38;94751.75;;;16.95;100.00
7480;BME280;3781;42.272;22.658;2022-07-29T00:11:05;94760.22;;;17.13;100.00
7480;BME280;3781;42.272;22.658;2022-07-29T00:13:32;94759.72;;;17.18;100.00
7480;BME280;3781;42.272;22.658;2022-07-29T00:15:59;94752.44;;;16.89;100.00
7480;BME280;3781;42.272;22.658;2022-07-29T00:18:26;94781.44;;;16.88;100.00
7480;BME280;3781;42.272;22.658;2022-07-29T00:20:53;94779.47;;;16.82;100.00
7480;BME280;3781;42.272;22.658;2022-07-29T00:23:20;94750.69;;;16.66;100.00
7480;BME280;3781;42.272;22.658;2022-07-29T00:25:48;94773.59;;;16.80;100.00
7480;BME280;3781;42.272;22.658;2022-07-29T00:28:15;94728.88;;;16.65;100.00
7480;BME280;3781;42.272;22.658;2022-07-29T00:30:42;94774.38;;;16.88;100.00
7480;BME280;3781;42.272;22.658;2022-07-29T00:33:09;94726.13;;;16.50;100.00
7480;BME280;3781;42.272;22.658;2022-07-29T00:35:36;94740.16;;;16.74;100.00
7480;BME280;3781;42.272;22.658;2022-07-29T00:38:11;94720.88;;;16.58;100.00
7480;BME280;3781;42.272;22.658;2022-07-29T00:40:38;94757.13;;;17.02;100.00
7480;BME280;3781;42.272;22.658;2022-07-29T00:43:07;94755.16;;;17.04;100.00
7480;BME280;3781;42.272;22.658;2022-07-29T00:45:34;94752.56;;;16.96;100.00
7480;BME280;3781;42.272;22.658;2022-07-29T00:48:01;94728.66;;;16.75;100.00
7480;BME280;3781;42.272;22.658;2022-07-29T00:50:30;94700.88;;;16.57;100.00
7480;BME280;3781;42.272;22.658;2022-07-29T00:52:58;94721.44;;;16.85;100.00
7480;BME280;3781;42.272;22.658;2022-07-29T00:55:24;94731.72;;;17.02;100.00
7480;BME280;3781;42.272;22.658;2022-07-29T00:57:52;94648.91;;;16.61;100.00
7480;BME280;3781;42.272;22.658;2022-07-29T01:00:22;94691.56;;;16.94;100.00
7480;BME280;3781;42.272;22.658;2022-07-29T01:02:50;94763.19;;;17.41;100.00
7480;BME280;3781;42.272;22.658;2022-07-29T01:05:19;94754.56;;;17.32;100.00
7480;BME280;3781;42.272;22.658;2022-07-29T01:07:47;94716.19;;;16.85;100.00
7480;BME280;3781;42.272;22.658;2022-07-29T01:10:15;94751.88;;;17.02;100.00
7480;BME280;3781;42.272;22.658;2022-07-29T01:12:44;94715.19;;;16.86;100.00
7480;BME280;3781;42.272;22.658;2022-07-29T01:15:12;94710.63;;;16.80;100.00
7480;BME280;3781;42.272;22.658;2022-07-29T01:17:43;94757.69;;;17.28;100.00
7480;BME280;3781;42.272;22.658;2022-07-29T01:20:17;94716.72;;;17.19;100.00
7480;BME280;3781;42.272;22.658;2022-07-29T01:23:07;94718.91;;;17.38;100.00
7480;BME280;3781;42.272;22.658;2022-07-29T01:25:54;94694.63;;;17.36;100.00
7480;BME280;3781;42.272;22.658;2022-07-29T01:31:44;94654.59;;;17.34;100.00
7480;BME280;3781;42.272;22.658;2022-07-29T01:34:21;94691.84;;;17.07;100.00
7480;BME280;3781;42.272;22.658;2022-07-29T01:36:54;94759.66;;;16.87;100.00
7480;BME280;3781;42.272;22.658;2022-07-29T01:39:26;94710.41;;;16.34;100.00
7480;BME280;3781;42.272;22.658;2022-07-29T01:41:58;94709.41;;;16.27;100.00
7480;BME280;3781;42.272;22.658;2022-07-29T01:44:34;94734.94;;;16.49;100.00
7480;BME280;3781;42.272;22.658;2022-07-29T01:47:10;94739.53;;;16.72;100.00
7480;BME280;3781;42.272;22.658;2022-07-29T01:49:42;94730.66;;;16.81;100.00
7480;BME280;3781;42.272;22.658;2022-07-29T01:52:15;94711.31;;;16.74;100.00
7480;BME280;3781;42.272;22.658;2022-07-29T01:54:50;94642.38;;;16.41;100.00
7480;BME280;3781;42.272;22.658;2022-07-29T01:57:20;94636.00;;;16.43;100.00
7480;BME280;3781;42.272;22.658;2022-07-29T01:59:48;94707.69;;;16.75;100.00
7480;BME280;3781;42.272;22.658;2022-07-29T02:02:18;94708.00;;;16.80;100.00
7480;BME280;3781;42.272;22.658;2022-07-29T02:04:47;94725.69;;;16.94;100.00
7480;BME280;3781;42.272;22.658;2022-07-29T02:07:17;94724.06;;;16.85;100.00
7480;BME280;3781;42.272;22.658;2022-07-29T02:09:46;94717.91;;;16.45;100.00
7480;BME280;3781;42.272;22.658;2022-07-29T02:12:14;94719.56;;;16.38;100.00
7480;BME280;3781;42.272;22.658;2022-07-29T02:14:45;94721.56;;;16.28;100.00
7480;BME280;3781;42.272;22.658;2022-07-29T02:17:17;94702.88;;;16.07;100.00
7480;BME280;3781;42.272;22.658;2022-07-29T02:19:47;94704.84;;;16.21;100.00
7480;BME280;3781;42.272;22.658;2022-07-29T02:22:16;94704.84;;;16.21;100.00
7480;BME280;3781;42.272;22.658;2022-07-29T02:24:44;94688.44;;;16.27;100.00
7480;BME280;3781;42.272;22.658;2022-07-29T02:27:12;94682.38;;;16.27;100.00
7480;BME280;3781;42.272;22.658;2022-07-29T02:29:39;94717.28;;;16.51;100.00
7480;BME280;3781;42.272;22.658;2022-07-29T02:32:07;94694.69;;;16.50;100.00
7480;BME280;3781;42.272;22.658;2022-07-29T02:34:38;94562.97;;;15.69;100.00
7480;BME280;3781;42.272;22.658;2022-07-29T02:37:08;94712.94;;;16.75;100.00
7480;BME280;3781;42.272;22.658;2022-07-29T02:39:36;94646.66;;;16.42;100.00
7480;BME280;3781;42.272;22.658;2022-07-29T02:42:07;94654.66;;;16.48;100.00
7480;BME280;3781;42.272;22.658;2022-07-29T02:44:34;94708.03;;;16.72;100.00
7480;BME280;3781;42.272;22.658;2022-07-29T02:47:05;94713.44;;;16.78;100.00
7480;BME280;3781;42.272;22.658;2022-07-29T02:49:37;94647.16;;;16.37;100.00
7480;BME280;3781;42.272;22.658;2022-07-29T02:52:08;94720.81;;;16.83;100.00
7480;BME280;3781;42.272;22.658;2022-07-29T02:54:41;94724.41;;;16.82;100.00
7480;BME280;3781;42.272;22.658;2022-07-29T02:57:14;94725.91;;;16.76;100.00
7480;BME280;3781;42.272;22.658;2022-07-29T02:59:43;94671.06;;;16.34;100.00
7480;BME280;3781;42.272;22.658;2022-07-29T03:02:13;94701.72;;;16.42;100.00
7480;BME280;3781;42.272;22.658;2022-07-29T03:04:42;94735.28;;;16.63;100.00
7480;BME280;3781;42.272;22.658;2022-07-29T03:07:10;94684.88;;;16.12;100.00
7480;BME280;3781;42.272;22.658;2022-07-29T03:09:40;94733.00;;;16.27;100.00
7480;BME280;3781;42.272;22.658;2022-07-29T03:12:08;94722.84;;;16.32;100.00
7480;BME280;3781;42.272;22.658;2022-07-29T03:14:36;94732.19;;;16.35;100.00
7480;BME280;3781;42.272;22.658;2022-07-29T03:17:03;94684.53;;;16.07;100.00
7480;BME280;3781;42.272;22.658;2022-07-29T03:19:31;94727.09;;;16.57;100.00
7480;BME280;3781;42.272;22.658;2022-07-29T03:21:59;94714.81;;;16.34;100.00
7480;BME280;3781;42.272;22.658;2022-07-29T03:24:28;94725.81;;;16.21;100.00
7480;BME280;3781;42.272;22.658;2022-07-29T03:26:55;94707.63;;;16.04;100.00
7480;BME280;3781;42.272;22.658;2022-07-29T03:29:23;94747.75;;;16.12;100.00
7480;BME280;3781;42.272;22.658;2022-07-29T03:31:50;94711.06;;;15.88;100.00
7480;BME280;3781;42.272;22.658;2022-07-29T03:34:17;94746.78;;;16.37;100.00
7480;BME280;3781;42.272;22.658;2022-07-29T03:36:44;94745.13;;;16.52;100.00
7480;BME280;3781;42.272;22.658;2022-07-29T03:39:15;94745.59;;;16.48;100.00
7480;BME280;3781;42.272;22.658;2022-07-29T03:41:45;94649.66;;;15.99;100.00
7480;BME280;3781;42.272;22.658;2022-07-29T03:44:13;94712.53;;;16.55;100.00
7480;BME280;3781;42.272;22.658;2022-07-29T03:46:41;94739.53;;;16.72;100.00
7480;BME280;3781;42.272;22.658;2022-07-29T03:49:11;94729.41;;;16.52;100.00
7480;BME280;3781;42.272;22.658;2022-07-29T03:51:38;94709.09;;;16.30;100.00
7480;BME280;3781;42.272;22.658;2022-07-29T03:54:06;94703.69;;;16.24;100.00
7480;BME280;3781;42.272;22.658;2022-07-29T03:56:37;94704.53;;;16.08;100.00
7480;BME280;3781;42.272;22.658;2022-07-29T03:59:05;94695.34;;;16.28;100.00
7480;BME280;3781;42.272;22.658;2022-07-29T04:01:33;94720.22;;;16.40;100.00
7480;BME280;3781;42.272;22.658;2022-07-29T04:04:01;94728.41;;;16.45;100.00
7480;BME280;3781;42.272;22.658;2022-07-29T04:06:29;94734.63;;;16.61;100.00
7480;BME280;3781;42.272;22.658;2022-07-29T04:08:55;94731.97;;;16.77;100.00
7480;BME280;3781;42.272;22.658;2022-07-29T04:11:22;94713.75;;;16.75;100.00
7480;BME280;3781;42.272;22.658;2022-07-29T04:13:51;94706.06;;;16.74;100.00
7480;BME280;3781;42.272;22.658;2022-07-29T04:16:17;94712.94;;;16.83;100.00
7480;BME280;3781;42.272;22.658;2022-07-29T04:18:44;94719.81;;;16.84;100.00
7480;BME280;3781;42.272;22.658;2022-07-29T04:21:11;94710.00;;;16.78;100.00
7480;BME280;3781;42.272;22.658;2022-07-29T04:23:38;94731.53;;;17.04;100.00
7480;BME280;3781;42.272;22.658;2022-07-29T04:26:04;94711.88;;;17.00;100.00
7480;BME280;3781;42.272;22.658;2022-07-29T04:28:34;94711.16;;;17.14;100.00
7480;BME280;3781;42.272;22.658;2022-07-29T04:31:03;94743.31;;;17.47;100.00
7480;BME280;3781;42.272;22.658;2022-07-29T04:33:30;94745.03;;;17.70;100.00
7480;BME280;3781;42.272;22.658;2022-07-29T04:35:56;94721.19;;;17.94;100.00
7480;BME280;3781;42.272;22.658;2022-07-29T04:38:23;94736.00;;;18.33;100.00
7480;BME280;3781;42.272;22.658;2022-07-29T04:40:50;94747.97;;;18.58;100.00
7480;BME280;3781;42.272;22.658;2022-07-29T04:43:17;94752.53;;;19.08;100.00
7480;BME280;3781;42.272;22.658;2022-07-29T04:45:43;94746.16;;;19.31;100.00
7480;BME280;3781;42.272;22.658;2022-07-29T04:48:12;94748.09;;;19.37;100.00
7480;BME280;3781;42.272;22.658;2022-07-29T04:50:39;94724.78;;;19.55;100.00
7480;BME280;3781;42.272;22.658;2022-07-29T04:53:06;94746.78;;;19.84;100.00
7480;BME280;3781;42.272;22.658;2022-07-29T04:55:33;94762.56;;;20.19;100.00
7480;BME280;3781;42.272;22.658;2022-07-29T04:58:01;94773.13;;;20.19;100.00
7480;BME280;3781;42.272;22.658;2022-07-29T05:00:28;94774.03;;;20.75;100.00
7480;BME280;3781;42.272;22.658;2022-07-29T05:02:55;94765.69;;;21.34;100.00
7480;BME280;3781;42.272;22.658;2022-07-29T05:05:23;94738.50;;;21.40;100.00
7480;BME280;3781;42.272;22.658;2022-07-29T05:07:50;94779.47;;;22.24;100.00
7480;BME280;3781;42.272;22.658;2022-07-29T05:10:17;94782.19;;;22.63;100.00
7480;BME280;3781;42.272;22.658;2022-07-29T05:12:44;94788.72;;;22.87;100.00
7480;BME280;3781;42.272;22.658;2022-07-29T05:15:10;94759.34;;;23.01;100.00
7480;BME280;3781;42.272;22.658;2022-07-29T05:17:37;94764.56;;;23.54;96.60
7480;BME280;3781;42.272;22.658;2022-07-29T05:20:05;94785.25;;;23.83;93.51
7480;BME280;3781;42.272;22.658;2022-07-29T05:22:33;94784.63;;;24.32;90.70
7480;BME280;3781;42.272;22.658;2022-07-29T05:25:01;94794.13;;;25.26;82.22
7480;BME280;3781;42.272;22.658;2022-07-29T05:27:28;94780.44;;;25.23;77.23
7480;BME280;3781;42.272;22.658;2022-07-29T05:29:55;94804.63;;;25.64;74.18
7480;BME280;3781;42.272;22.658;2022-07-29T05:32:22;94798.59;;;25.87;72.89
7480;BME280;3781;42.272;22.658;2022-07-29T05:34:48;94789.50;;;26.12;71.86
7480;BME280;3781;42.272;22.658;2022-07-29T05:37:15;94811.00;;;26.29;72.49
7480;BME280;3781;42.272;22.658;2022-07-29T05:39:44;94762.94;;;25.15;72.81
7480;BME280;3781;42.272;22.658;2022-07-29T05:42:11;94806.59;;;25.01;79.95
7480;BME280;3781;42.272;22.658;2022-07-29T05:44:39;94814.38;;;24.09;88.93
7480;BME280;3781;42.272;22.658;2022-07-29T05:47:06;94791.56;;;23.05;94.56
7480;BME280;3781;42.272;22.658;2022-07-29T05:49:33;94811.13;;;22.71;100.00
7480;BME280;3781;42.272;22.658;2022-07-29T05:51:59;94793.56;;;22.37;100.00
7480;BME280;3781;42.272;22.658;2022-07-29T05:54:27;94803.59;;;21.88;100.00
7480;BME280;3781;42.272;22.658;2022-07-29T05:56:55;94793.59;;;21.43;100.00
7480;BME280;3781;42.272;22.658;2022-07-29T05:59:22;94775.38;;;21.14;100.00
7480;BME280;3781;42.272;22.658;2022-07-29T06:01:48;94804.72;;;21.66;100.00
7480;BME280;3781;42.272;22.658;2022-07-29T06:04:15;94796.16;;;21.64;100.00
7480;BME280;3781;42.272;22.658;2022-07-29T06:06:42;94791.56;;;21.45;100.00
7480;BME280;3781;42.272;22.658;2022-07-29T06:09:09;94798.63;;;21.72;100.00
7480;BME280;3781;42.272;22.658;2022-07-29T06:11:36;94801.88;;;21.74;100.00
7480;BME280;3781;42.272;22.658;2022-07-29T06:14:04;94805.22;;;21.83;100.00
7480;BME280;3781;42.272;22.658;2022-07-29T06:16:31;94809.06;;;21.46;100.00
7480;BME280;3781;42.272;22.658;2022-07-29T06:18:58;94798.63;;;21.72;100.00
7480;BME280;3781;42.272;22.658;2022-07-29T06:21:24;94804.44;;;21.95;100.00
7480;BME280;3781;42.272;22.658;2022-07-29T06:23:51;94765.66;;;21.68;100.00
7480;BME280;3781;42.272;22.658;2022-07-29T06:26:18;94783.56;;;21.66;100.00
7480;BME280;3781;42.272;22.658;2022-07-29T06:28:45;94778.84;;;21.61;100.00
7480;BME280;3781;42.272;22.658;2022-07-29T06:31:13;94801.66;;;21.69;100.00
7480;BME280;3781;42.272;22.658;2022-07-29T06:33:40;94789.28;;;21.76;100.00
7480;BME280;3781;42.272;22.658;2022-07-29T06:36:07;94796.28;;;21.97;100.00
7480;BME280;3781;42.272;22.658;2022-07-29T06:38:34;94789.00;;;21.99;100.00
7480;BME280;3781;42.272;22.658;2022-07-29T06:41:03;94787.78;;;22.14;100.00
7480;BME280;3781;42.272;22.658;2022-07-29T06:43:33;94772.78;;;22.47;100.00
7480;BME280;3781;42.272;22.658;2022-07-29T06:46:04;94784.25;;;22.68;100.00
7480;BME280;3781;42.272;22.658;2022-07-29T06:48:33;94790.34;;;22.75;100.00
7480;BME280;3781;42.272;22.658;2022-07-29T06:51:00;94796.44;;;22.95;100.00
7480;BME280;3781;42.272;22.658;2022-07-29T06:53:28;94801.69;;;23.47;100.00
7480;BME280;3781;42.272;22.658;2022-07-29T06:55:55;94798.09;;;23.86;99.66
7480;BME280;3781;42.272;22.658;2022-07-29T06:58:23;94780.34;;;23.86;97.67
7480;BME280;3781;42.272;22.658;2022-07-29T07:00:51;94799.00;;;24.18;83.65
7480;BME280;3781;42.272;22.658;2022-07-29T07:03:18;94799.94;;;23.92;93.03
7480;BME280;3781;42.272;22.658;2022-07-29T07:05:46;94779.91;;;23.39;87.48
7480;BME280;3781;42.272;22.658;2022-07-29T07:08:13;94793.00;;;23.84;94.85
7480;BME280;3781;42.272;22.658;2022-07-29T07:10:41;94811.88;;;24.52;93.81
7480;BME280;3781;42.272;22.658;2022-07-29T07:13:09;94766.63;;;24.65;89.32
7480;BME280;3781;42.272;22.658;2022-07-29T07:15:36;94766.16;;;24.99;85.75
7480;BME280;3781;42.272;22.658;2022-07-29T07:18:03;94760.00;;;25.23;83.12
7480;BME280;3781;42.272;22.658;2022-07-29T07:20:31;94808.19;;;26.24;78.50
7480;BME280;3781;42.272;22.658;2022-07-29T07:22:59;94811.31;;;26.03;67.69
7480;BME280;3781;42.272;22.658;2022-07-29T07:25:26;94809.63;;;26.38;72.64
7480;BME280;3781;42.272;22.658;2022-07-29T07:27:53;94803.19;;;26.16;68.14
7480;BME280;3781;42.272;22.658;2022-07-29T07:30:20;94801.00;;;25.77;69.70
7480;BME280;3781;42.272;22.658;2022-07-29T07:32:47;94805.41;;;25.83;66.60
7480;BME280;3781;42.272;22.658;2022-07-29T07:35:14;94803.19;;;26.16;70.90
7480;BME280;3781;42.272;22.658;2022-07-29T07:37:40;94759.09;;;26.02;69.77
7480;BME280;3781;42.272;22.658;2022-07-29T07:40:11;94773.31;;;25.96;61.04
7480;BME280;3781;42.272;22.658;2022-07-29T07:42:38;94809.63;;;26.38;63.13
7480;BME280;3781;42.272;22.658;2022-07-29T07:45:05;94794.66;;;26.67;64.22
7480;BME280;3781;42.272;22.658;2022-07-29T07:47:34;94792.56;;;26.57;64.30
7480;BME280;3781;42.272;22.658;2022-07-29T07:50:02;94782.22;;;26.90;63.87
7480;BME280;3781;42.272;22.658;2022-07-29T07:52:28;94784.56;;;27.22;62.53
7480;BME280;3781;42.272;22.658;2022-07-29T07:54:55;94803.19;;;27.40;64.07
7480;BME280;3781;42.272;22.658;2022-07-29T07:57:23;94806.63;;;27.29;56.47
7480;BME280;3781;42.272;22.658;2022-07-29T07:59:50;94786.66;;;27.20;57.87
7480;BME280;3781;42.272;22.658;2022-07-29T08:02:17;94792.00;;;27.66;61.87
7480;BME280;3781;42.272;22.658;2022-07-29T08:04:44;94803.22;;;28.03;55.98
7480;BME280;3781;42.272;22.658;2022-07-29T08:07:11;94764.88;;;27.46;53.93
7480;BME280;3781;42.272;22.658;2022-07-29T08:09:39;94802.31;;;27.28;58.72
7480;BME280;3781;42.272;22.658;2022-07-29T08:12:06;94793.41;;;27.45;58.55
7480;BME280;3781;42.272;22.658;2022-07-29T08:14:35;94798.81;;;27.85;59.53
7480;BME280;3781;42.272;22.658;2022-07-29T08:17:02;94805.94;;;27.45;56.25
7480;BME280;3781;42.272;22.658;2022-07-29T08:19:29;94768.13;;;27.48;60.05
7480;BME280;3781;42.272;22.658;2022-07-29T08:21:56;94777.53;;;27.50;56.83
7480;BME280;3781;42.272;22.658;2022-07-29T08:24:22;94769.41;;;27.57;58.55
7480;BME280;3781;42.272;22.658;2022-07-29T08:27:07;94769.28;;;27.52;60.41
7480;BME280;3781;42.272;22.658;2022-07-29T08:29:35;94776.91;;;27.72;56.64
7480;BME280;3781;42.272;22.658;2022-07-29T08:32:02;94750.34;;;28.16;58.44
7480;BME280;3781;42.272;22.658;2022-07-29T08:34:29;94781.72;;;28.66;58.16
7480;BME280;3781;42.272;22.658;2022-07-29T08:36:56;94742.84;;;29.08;53.13
7480;BME280;3781;42.272;22.658;2022-07-29T08:39:23;94786.44;;;29.08;52.63
7480;BME280;3781;42.272;22.658;2022-07-29T08:41:50;94759.53;;;29.48;53.54
7480;BME280;3781;42.272;22.658;2022-07-29T08:44:18;94757.31;;;29.45;49.80
7480;BME280;3781;42.272;22.658;2022-07-29T08:46:48;94765.66;;;30.09;49.88
7480;BME280;3781;42.272;22.658;2022-07-29T08:49:16;94755.50;;;31.54;44.25
7480;BME280;3781;42.272;22.658;2022-07-29T08:51:42;94785.84;;;32.84;43.26
7480;BME280;3781;42.272;22.658;2022-07-29T08:54:10;94765.59;;;33.92;43.92
7480;BME280;3781;42.272;22.658;2022-07-29T08:56:38;94781.53;;;35.01;40.53
7480;BME280;3781;42.272;22.658;2022-07-29T08:59:07;94761.84;;;34.52;40.26
7480;BME280;3781;42.272;22.658;2022-07-29T09:01:37;94777.25;;;33.67;41.56
7480;BME280;3781;42.272;22.658;2022-07-29T09:04:10;94753.13;;;32.20;44.11
7480;BME280;3781;42.272;22.658;2022-07-29T09:06:42;94752.53;;;31.51;44.40
7480;BME280;3781;42.272;22.658;2022-07-29T09:09:10;94771.25;;;30.29;46.80
7480;BME280;3781;42.272;22.658;2022-07-29T09:11:37;94757.50;;;29.39;47.75
7480;BME280;3781;42.272;22.658;2022-07-29T09:14:04;94754.28;;;29.20;49.41
7480;BME280;3781;42.272;22.658;2022-07-29T09:16:51;94763.38;;;29.36;48.34
7480;BME280;3781;42.272;22.658;2022-07-29T09:19:30;94733.25;;;29.45;47.64
7480;BME280;3781;42.272;22.658;2022-07-29T09:21:59;94762.72;;;29.12;48.35
7480;BME280;3781;42.272;22.658;2022-07-29T09:24:37;94765.13;;;29.14;50.24
7480;BME280;3781;42.272;22.658;2022-07-29T09:27:18;94763.75;;;29.28;48.99
7480;BME280;3781;42.272;22.658;2022-07-29T09:29:46;94750.53;;;29.21;51.15
7480;BME280;3781;42.272;22.658;2022-07-29T09:32:13;94749.84;;;29.47;51.97
7480;BME280;3781;42.272;22.658;2022-07-29T09:34:42;94704.69;;;29.51;49.99
7480;BME280;3781;42.272;22.658;2022-07-29T09:37:09;94724.44;;;29.66;49.12
7480;BME280;3781;42.272;22.658;2022-07-29T09:39:38;94760.44;;;29.97;47.68
7480;BME280;3781;42.272;22.658;2022-07-29T09:42:11;94752.09;;;29.94;48.64
7480;BME280;3781;42.272;22.658;2022-07-29T09:44:43;94754.13;;;30.08;51.59
7480;BME280;3781;42.272;22.658;2022-07-29T09:47:10;94755.31;;;30.39;48.95
7480;BME280;3781;42.272;22.658;2022-07-29T09:49:51;94742.72;;;31.35;45.87
7480;BME280;3781;42.272;22.658;2022-07-29T09:52:18;94741.72;;;32.95;46.41
7480;BME280;3781;42.272;22.658;2022-07-29T09:54:45;94746.91;;;34.15;44.69
7480;BME280;3781;42.272;22.658;2022-07-29T09:57:23;94742.72;;;34.87;37.96
7480;BME280;3781;42.272;22.658;2022-07-29T09:59:56;94742.03;;;34.23;40.76
7480;BME280;3781;42.272;22.658;2022-07-29T10:02:27;94723.00;;;34.92;42.66
7480;BME280;3781;42.272;22.658;2022-07-29T10:04:56;94704.91;;;34.92;37.30
7480;BME280;3781;42.272;22.658;2022-07-29T10:07:23;94694.44;;;35.72;38.32
7480;BME280;3781;42.272;22.658;2022-07-29T10:09:53;94714.56;;;37.20;36.88
7480;BME280;3781;42.272;22.658;2022-07-29T10:12:21;94715.94;;;37.95;32.75
7480;BME280;3781;42.272;22.658;2022-07-29T10:14:48;94715.09;;;38.35;33.98
7480;BME280;3781;42.272;22.658;2022-07-29T10:17:16;94715.06;;;39.51;33.71
7480;BME280;3781;42.272;22.658;2022-07-29T10:19:44;94702.47;;;39.95;31.74
7480;BME280;3781;42.272;22.658;2022-07-29T10:22:12;94721.56;;;40.77;30.64
7480;BME280;3781;42.272;22.658;2022-07-29T10:24:39;94696.69;;;39.87;33.70
7480;BME280;3781;42.272;22.658;2022-07-29T10:27:07;94691.63;;;40.03;30.47
7480;BME280;3781;42.272;22.658;2022-07-29T10:29:34;94703.22;;;40.26;31.25
7480;BME280;3781;42.272;22.658;2022-07-29T10:32:17;94668.44;;;38.47;34.59
7480;BME280;3781;42.272;22.658;2022-07-29T10:35:03;94689.47;;;38.64;32.81
7480;BME280;3781;42.272;22.658;2022-07-29T10:37:40;94671.47;;;36.72;34.84
7480;BME280;3781;42.272;22.658;2022-07-29T10:40:17;94656.47;;;35.82;37.18
7480;BME280;3781;42.272;22.658;2022-07-29T10:43:24;94673.50;;;36.06;38.59
7480;BME280;3781;42.272;22.658;2022-07-29T10:45:56;94674.59;;;37.44;39.05
7480;BME280;3781;42.272;22.658;2022-07-29T10:48:23;94659.97;;;38.48;36.63
7480;BME280;3781;42.272;22.658;2022-07-29T10:50:55;94666.03;;;39.34;36.00
7480;BME280;3781;42.272;22.658;2022-07-29T10:53:24;94663.03;;;39.75;34.79
7480;BME280;3781;42.272;22.658;2022-07-29T10:55:52;94659.63;;;39.61;33.22
7480;BME280;3781;42.272;22.658;2022-07-29T10:58:20;94641.75;;;39.68;33.35
7480;BME280;3781;42.272;22.658;2022-07-29T11:00:49;94657.34;;;37.94;36.35
7480;BME280;3781;42.272;22.658;2022-07-29T11:03:44;94648.72;;;37.92;37.29
7480;BME280;3781;42.272;22.658;2022-07-29T11:06:12;94650.00;;;39.02;33.92
7480;BME280;3781;42.272;22.658;2022-07-29T11:08:41;94655.19;;;40.13;33.29
7480;BME280;3781;42.272;22.658;2022-07-29T11:11:35;94629.63;;;39.83;32.46
7480;BME280;3781;42.272;22.658;2022-07-29T11:14:06;94645.78;;;39.79;32.74
7480;BME280;3781;42.272;22.658;2022-07-29T11:16:58;94651.06;;;40.58;30.76
7480;BME280;3781;42.272;22.658;2022-07-29T11:19:27;94646.22;;;40.81;31.52
7480;BME280;3781;42.272;22.658;2022-07-29T11:21:54;94602.66;;;40.21;33.20
7480;BME280;3781;42.272;22.658;2022-07-29T11:24:23;94603.41;;;38.64;33.75
7480;BME280;3781;42.272;22.658;2022-07-29T11:27:15;94609.53;;;37.17;35.70
7480;BME280;3781;42.272;22.658;2022-07-29T11:29:53;94572.78;;;35.53;36.91
7480;BME280;3781;42.272;22.658;2022-07-29T11:32:21;94624.16;;;34.96;37.76
7480;BME280;3781;42.272;22.658;2022-07-29T11:34:50;94616.00;;;34.72;39.28
7480;BME280;3781;42.272;22.658;2022-07-29T11:37:36;94604.22;;;36.10;42.53
7480;BME280;3781;42.272;22.658;2022-07-29T11:40:14;94604.31;;;37.88;37.13
7480;BME280;3781;42.272;22.658;2022-07-29T11:42:48;94592.22;;;38.43;35.56
7480;BME280;3781;42.272;22.658;2022-07-29T11:45:44;94601.13;;;39.80;33.38
7480;BME280;3781;42.272;22.658;2022-07-29T11:48:16;94616.78;;;40.91;31.06
7480;BME280;3781;42.272;22.658;2022-07-29T11:50:44;94616.25;;;40.12;30.88
7480;BME280;3781;42.272;22.658;2022-07-29T11:53:12;94624.16;;;40.65;29.53
7480;BME280;3781;42.272;22.658;2022-07-29T11:55:40;94587.78;;;40.61;28.97
7480;BME280;3781;42.272;22.658;2022-07-29T11:58:08;94571.72;;;40.77;30.02
7480;BME280;3781;42.272;22.658;2022-07-29T12:00:37;94605.75;;;41.80;31.22
7480;BME280;3781;42.272;22.658;2022-07-29T12:03:06;94621.19;;;43.21;27.95
7480;BME280;3781;42.272;22.658;2022-07-29T12:05:39;94613.66;;;43.99;25.69
7480;BME280;3781;42.272;22.658;2022-07-29T12:08:14;94609.50;;;43.32;25.06
7480;BME280;3781;42.272;22.658;2022-07-29T12:10:43;94624.97;;;43.73;24.34
7480;BME280;3781;42.272;22.658;2022-07-29T12:13:12;94595.63;;;43.05;23.29
7480;BME280;3781;42.272;22.658;2022-07-29T12:15:39;94614.53;;;43.30;23.70
7480;BME280;3781;42.272;22.658;2022-07-29T12:18:14;94606.47;;;43.94;24.34
7480;BME280;3781;42.272;22.658;2022-07-29T12:20:41;94606.03;;;41.50;25.14
7480;BME280;3781;42.272;22.658;2022-07-29T12:23:09;94557.06;;;37.40;29.55
7480;BME280;3781;42.272;22.658;2022-07-29T12:25:38;94588.38;;;36.54;33.29
7480;BME280;3781;42.272;22.658;2022-07-29T12:28:07;94572.59;;;36.75;34.86
7480;BME280;3781;42.272;22.658;2022-07-29T12:30:40;94508.81;;;36.04;33.66
7480;BME280;3781;42.272;22.658;2022-07-29T12:33:16;94589.53;;;35.97;32.28
7480;BME280;3781;42.272;22.658;2022-07-29T12:35:45;94545.59;;;35.44;36.13
7480;BME280;3781;42.272;22.658;2022-07-29T12:38:14;94536.22;;;34.89;34.82
7480;BME280;3781;42.272;22.658;2022-07-29T12:40:41;94579.22;;;35.10;35.47
7480;BME280;3781;42.272;22.658;2022-07-29T12:43:11;94552.06;;;35.01;36.60
7480;BME280;3781;42.272;22.658;2022-07-29T12:45:40;94576.19;;;36.70;36.00
7480;BME280;3781;42.272;22.658;2022-07-29T12:48:07;94570.28;;;37.28;32.25
7480;BME280;3781;42.272;22.658;2022-07-29T12:50:35;94550.13;;;36.10;31.75
7480;BME280;3781;42.272;22.658;2022-07-29T12:53:10;94557.06;;;37.53;35.84
7480;BME280;3781;42.272;22.658;2022-07-29T12:55:45;94559.75;;;40.01;28.26
7480;BME280;3781;42.272;22.658;2022-07-29T12:58:25;94535.13;;;39.10;29.65
7480;BME280;3781;42.272;22.658;2022-07-29T13:01:05;94532.38;;;38.26;31.54
7480;BME280;3781;42.272;22.658;2022-07-29T13:03:51;94486.09;;;38.76;29.36
7480;BME280;3781;42.272;22.658;2022-07-29T13:06:33;94551.97;;;37.74;30.19
7480;BME280;3781;42.272;22.658;2022-07-29T13:09:02;94545.19;;;39.40;29.34
7480;BME280;3781;42.272;22.658;2022-07-29T13:11:30;94549.78;;;40.90;27.23
7480;BME280;3781;42.272;22.658;2022-07-29T13:13:58;94529.22;;;41.01;25.90
7480;BME280;3781;42.272;22.658;2022-07-29T13:16:25;94550.72;;;39.91;28.20
7480;BME280;3781;42.272;22.658;2022-07-29T13:19:11;94538.63;;;40.15;29.23
7480;BME280;3781;42.272;22.658;2022-07-29T13:21:38;94553.16;;;39.84;26.63